sensor_id;sensor_type;location;lat;lon;timestamp;P1;durP1;ratioP1;P2;durP2;ratioP2
56860;SDS011;42744;51.094;3.490;2023-04-15T00:00:16;5.93;;;5.10;;
56860;SDS011;42744;51.094;3.490;2023-04-15T00:02:43;7.13;;;5.30;;
56860;SDS011;42744;51.094;3.490;2023-04-15T00:05:09;5.87;;;5.27;;
56860;SDS011;42744;51.094;3.490;2023-04-15T00:07:35;5.57;;;5.07;;
56860;SDS011;42744;51.094;3.490;2023-04-15T00:10:02;6.33;;;4.87;;
56860;SDS011;42744;51.094;3.490;2023-04-15T00:12:28;6.00;;;5.20;;
56860;SDS011;42744;51.094;3.490;2023-04-15T00:14:54;6.13;;;5.27;;
56860;SDS011;42744;51.094;3.490;2023-04-15T00:17:21;6.07;;;4.90;;
56860;SDS011;42744;51.094;3.490;2023-04-15T00:19:47;5.47;;;4.90;;
56860;SDS011;42744;51.094;3.490;2023-04-15T00:22:13;7.30;;;5.37;;
56860;SDS011;42744;51.094;3.490;2023-04-15T00:24:42;5.37;;;4.87;;
56860;SDS011;42744;51.094;3.490;2023-04-15T00:27:08;6.43;;;4.93;;
56860;SDS011;42744;51.094;3.490;2023-04-15T00:29:34;5.23;;;4.73;;
56860;SDS011;42744;51.094;3.490;2023-04-15T00:32:00;6.27;;;5.20;;
56860;SDS011;42744;51.094;3.490;2023-04-15T00:34:27;6.10;;;5.50;;
56860;SDS011;42744;51.094;3.490;2023-04-15T00:36:53;5.37;;;4.87;;
56860;SDS011;42744;51.094;3.490;2023-04-15T00:39:19;5.97;;;4.87;;
56860;SDS011;42744;51.094;3.490;2023-04-15T00:41:46;6.77;;;5.03;;
56860;SDS011;42744;51.094;3.490;2023-04-15T00:44:12;5.57;;;4.77;;
56860;SDS011;42744;51.094;3.490;2023-04-15T00:46:38;5.60;;;4.67;;
56860;SDS011;42744;51.094;3.490;2023-04-15T00:49:06;5.23;;;4.73;;
56860;SDS011;42744;51.094;3.490;2023-04-15T00:51:32;6.20;;;5.30;;
56860;SDS011;42744;51.094;3.490;2023-04-15T00:54:03;5.53;;;4.97;;
56860;SDS011;42744;51.094;3.490;2023-04-15T00:56:33;5.27;;;4.77;;
56860;SDS011;42744;51.094;3.490;2023-04-15T00:59:00;5.17;;;4.67;;
56860;SDS011;42744;51.094;3.490;2023-04-15T01:01:26;5.07;;;4.43;;
56860;SDS011;42744;51.094;3.490;2023-04-15T01:03:54;4.93;;;4.43;;
56860;SDS011;42744;51.094;3.490;2023-04-15T01:06:22;6.20;;;4.77;;
56860;SDS011;42744;51.094;3.490;2023-04-15T01:08:48;5.23;;;4.70;;
56860;SDS011;42744;51.094;3.490;2023-04-15T01:11:15;5.27;;;4.30;;
56860;SDS011;42744;51.094;3.490;2023-04-15T01:13:42;6.03;;;4.63;;
56860;SDS011;42744;51.094;3.490;2023-04-15T01:16:08;5.17;;;4.67;;
56860;SDS011;42744;51.094;3.490;2023-04-15T01:18:35;7.30;;;5.23;;
56860;SDS011;42744;51.094;3.490;2023-04-15T01:21:05;5.47;;;4.53;;
56860;SDS011;42744;51.094;3.490;2023-04-15T01:23:32;5.53;;;4.00;;
56860;SDS011;42744;51.094;3.490;2023-04-15T01:26:05;5.17;;;4.20;;
56860;SDS011;42744;51.094;3.490;2023-04-15T01:28:33;4.87;;;4.10;;
56860;SDS011;42744;51.094;3.490;2023-04-15T01:31:07;6.07;;;3.90;;
56860;SDS011;42744;51.094;3.490;2023-04-15T01:33:41;5.77;;;4.07;;
56860;SDS011;42744;51.094;3.490;2023-04-15T01:36:08;6.97;;;3.77;;
56860;SDS011;42744;51.094;3.490;2023-04-15T01:38:35;5.40;;;3.60;;
56860;SDS011;42744;51.094;3.490;2023-04-15T01:41:02;4.30;;;3.73;;
56860;SDS011;42744;51.094;3.490;2023-04-15T01:43:29;7.80;;;4.00;;
56860;SDS011;42744;51.094;3.490;2023-04-15T01:45:54;4.40;;;3.70;;
56860;SDS011;42744;51.094;3.490;2023-04-15T01:48:21;4.87;;;4.37;;
56860;SDS011;42744;51.094;3.490;2023-04-15T01:50:47;5.60;;;4.63;;
56860;SDS011;42744;51.094;3.490;2023-04-15T01:53:14;4.30;;;3.90;;
56860;SDS011;42744;51.094;3.490;2023-04-15T01:55:40;5.17;;;4.00;;
56860;SDS011;42744;51.094;3.490;2023-04-15T01:58:06;4.97;;;3.87;;
56860;SDS011;42744;51.094;3.490;2023-04-15T02:00:33;5.93;;;4.13;;
56860;SDS011;42744;51.094;3.490;2023-04-15T02:02:59;4.60;;;4.20;;
56860;SDS011;42744;51.094;3.490;2023-04-15T02:05:25;5.47;;;4.37;;
56860;SDS011;42744;51.094;3.490;2023-04-15T02:07:51;4.73;;;4.00;;
56860;SDS011;42744;51.094;3.490;2023-04-15T02:10:18;4.33;;;3.87;;
56860;SDS011;42744;51.094;3.490;2023-04-15T02:12:44;6.80;;;4.80;;
56860;SDS011;42744;51.094;3.490;2023-04-15T02:15:12;5.63;;;5.03;;
56860;SDS011;42744;51.094;3.490;2023-04-15T02:17:38;7.43;;;5.03;;
56860;SDS011;42744;51.094;3.490;2023-04-15T02:20:07;6.67;;;4.80;;
56860;SDS011;42744;51.094;3.490;2023-04-15T02:22:34;5.53;;;5.00;;
56860;SDS011;42744;51.094;3.490;2023-04-15T02:25:00;4.70;;;4.30;;
56860;SDS011;42744;51.094;3.490;2023-04-15T02:27:25;6.43;;;4.50;;
56860;SDS011;42744;51.094;3.490;2023-04-15T02:29:53;6.67;;;4.37;;
56860;SDS011;42744;51.094;3.490;2023-04-15T02:32:19;5.83;;;4.40;;
56860;SDS011;42744;51.094;3.490;2023-04-15T02:34:47;6.80;;;5.13;;
56860;SDS011;42744;51.094;3.490;2023-04-15T02:37:13;5.73;;;5.10;;
56860;SDS011;42744;51.094;3.490;2023-04-15T02:39:40;7.47;;;5.80;;
56860;SDS011;42744;51.094;3.490;2023-04-15T02:42:06;6.53;;;5.53;;
56860;SDS011;42744;51.094;3.490;2023-04-15T02:44:32;9.67;;;6.57;;
56860;SDS011;42744;51.094;3.490;2023-04-15T02:47:00;6.67;;;6.00;;
56860;SDS011;42744;51.094;3.490;2023-04-15T02:49:26;7.53;;;6.00;;
56860;SDS011;42744;51.094;3.490;2023-04-15T02:51:54;6.80;;;6.07;;
56860;SDS011;42744;51.094;3.490;2023-04-15T02:54:21;7.37;;;6.00;;
56860;SDS011;42744;51.094;3.490;2023-04-15T02:56:47;6.87;;;6.00;;
56860;SDS011;42744;51.094;3.490;2023-04-15T02:59:14;7.30;;;6.43;;
56860;SDS011;42744;51.094;3.490;2023-04-15T03:01:40;6.57;;;5.83;;
56860;SDS011;42744;51.094;3.490;2023-04-15T03:04:06;7.67;;;6.40;;
56860;SDS011;42744;51.094;3.490;2023-04-15T03:06:33;8.97;;;6.50;;
56860;SDS011;42744;51.094;3.490;2023-04-15T03:09:00;6.93;;;5.90;;
56860;SDS011;42744;51.094;3.490;2023-04-15T03:11:28;7.17;;;6.27;;
56860;SDS011;42744;51.094;3.490;2023-04-15T03:13:54;7.13;;;6.10;;
56860;SDS011;42744;51.094;3.490;2023-04-15T03:16:21;9.50;;;6.17;;
56860;SDS011;42744;51.094;3.490;2023-04-15T03:18:47;8.53;;;6.47;;
56860;SDS011;42744;51.094;3.490;2023-04-15T03:21:13;11.27;;;6.03;;
56860;SDS011;42744;51.094;3.490;2023-04-15T03:23:40;7.10;;;5.50;;
56860;SDS011;42744;51.094;3.490;2023-04-15T03:26:05;5.87;;;4.97;;
56860;SDS011;42744;51.094;3.490;2023-04-15T03:28:32;7.40;;;5.20;;
56860;SDS011;42744;51.094;3.490;2023-04-15T03:30:58;7.40;;;5.83;;
56860;SDS011;42744;51.094;3.490;2023-04-15T03:33:24;7.27;;;5.43;;
56860;SDS011;42744;51.094;3.490;2023-04-15T03:35:50;7.57;;;5.33;;
56860;SDS011;42744;51.094;3.490;2023-04-15T03:38:17;9.47;;;5.97;;
56860;SDS011;42744;51.094;3.490;2023-04-15T03:40:44;6.87;;;5.47;;
56860;SDS011;42744;51.094;3.490;2023-04-15T03:43:11;7.40;;;5.10;;
56860;SDS011;42744;51.094;3.490;2023-04-15T03:45:37;8.67;;;5.87;;
56860;SDS011;42744;51.094;3.490;2023-04-15T03:48:03;7.90;;;5.83;;
56860;SDS011;42744;51.094;3.490;2023-04-15T03:50:29;9.33;;;6.30;;
56860;SDS011;42744;51.094;3.490;2023-04-15T03:52:55;10.30;;;5.93;;
56860;SDS011;42744;51.094;3.490;2023-04-15T03:55:21;7.53;;;6.03;;
56860;SDS011;42744;51.094;3.490;2023-04-15T03:57:47;9.27;;;6.10;;
56860;SDS011;42744;51.094;3.490;2023-04-15T04:00:13;9.93;;;6.23;;
56860;SDS011;42744;51.094;3.490;2023-04-15T04:02:40;8.13;;;6.30;;
56860;SDS011;42744;51.094;3.490;2023-04-15T04:05:06;9.90;;;6.53;;
56860;SDS011;42744;51.094;3.490;2023-04-15T04:07:32;8.27;;;6.40;;
56860;SDS011;42744;51.094;3.490;2023-04-15T04:10:04;10.53;;;6.60;;
56860;SDS011;42744;51.094;3.490;2023-04-15T04:12:47;8.83;;;6.90;;
56860;SDS011;42744;51.094;3.490;2023-04-15T04:15:23;7.03;;;6.20;;
56860;SDS011;42744;51.094;3.490;2023-04-15T04:17:49;11.60;;;7.53;;
56860;SDS011;42744;51.094;3.490;2023-04-15T04:20:15;10.53;;;7.40;;
56860;SDS011;42744;51.094;3.490;2023-04-15T04:22:41;9.23;;;7.83;;
56860;SDS011;42744;51.094;3.490;2023-04-15T04:25:07;10.43;;;8.23;;
56860;SDS011;42744;51.094;3.490;2023-04-15T04:27:37;14.60;;;9.57;;
56860;SDS011;42744;51.094;3.490;2023-04-15T04:30:03;14.00;;;9.83;;
56860;SDS011;42744;51.094;3.490;2023-04-15T04:32:31;12.53;;;9.77;;
56860;SDS011;42744;51.094;3.490;2023-04-15T04:34:56;12.73;;;9.70;;
56860;SDS011;42744;51.094;3.490;2023-04-15T04:37:23;11.40;;;9.10;;
56860;SDS011;42744;51.094;3.490;2023-04-15T04:39:49;11.33;;;9.60;;
56860;SDS011;42744;51.094;3.490;2023-04-15T04:42:15;10.70;;;9.60;;
56860;SDS011;42744;51.094;3.490;2023-04-15T04:44:41;12.90;;;9.53;;
56860;SDS011;42744;51.094;3.490;2023-04-15T04:47:07;14.10;;;10.63;;
56860;SDS011;42744;51.094;3.490;2023-04-15T04:49:33;16.67;;;11.53;;
56860;SDS011;42744;51.094;3.490;2023-04-15T04:52:00;14.33;;;11.57;;
56860;SDS011;42744;51.094;3.490;2023-04-15T04:54:26;17.13;;;11.80;;
56860;SDS011;42744;51.094;3.490;2023-04-15T04:56:52;16.73;;;12.43;;
56860;SDS011;42744;51.094;3.490;2023-04-15T04:59:18;17.70;;;12.97;;
56860;SDS011;42744;51.094;3.490;2023-04-15T05:01:44;18.47;;;13.33;;
56860;SDS011;42744;51.094;3.490;2023-04-15T05:04:10;18.37;;;13.30;;
56860;SDS011;42744;51.094;3.490;2023-04-15T05:06:37;19.43;;;14.10;;
56860;SDS011;42744;51.094;3.490;2023-04-15T05:09:03;19.27;;;14.40;;
56860;SDS011;42744;51.094;3.490;2023-04-15T05:11:28;22.87;;;14.57;;
56860;SDS011;42744;51.094;3.490;2023-04-15T05:13:55;20.10;;;14.60;;
56860;SDS011;42744;51.094;3.490;2023-04-15T05:16:21;20.10;;;13.90;;
56860;SDS011;42744;51.094;3.490;2023-04-15T05:18:46;21.03;;;14.70;;
56860;SDS011;42744;51.094;3.490;2023-04-15T05:21:13;21.30;;;14.27;;
56860;SDS011;42744;51.094;3.490;2023-04-15T05:23:38;20.83;;;14.60;;
56860;SDS011;42744;51.094;3.490;2023-04-15T05:26:05;18.07;;;12.97;;
56860;SDS011;42744;51.094;3.490;2023-04-15T05:28:31;19.27;;;14.03;;
56860;SDS011;42744;51.094;3.490;2023-04-15T05:30:57;18.17;;;13.07;;
56860;SDS011;42744;51.094;3.490;2023-04-15T05:33:23;19.30;;;12.60;;
56860;SDS011;42744;51.094;3.490;2023-04-15T05:35:49;16.77;;;12.53;;
56860;SDS011;42744;51.094;3.490;2023-04-15T05:38:15;17.37;;;11.87;;
56860;SDS011;42744;51.094;3.490;2023-04-15T05:40:41;17.13;;;11.90;;
56860;SDS011;42744;51.094;3.490;2023-04-15T05:43:07;20.87;;;13.03;;
56860;SDS011;42744;51.094;3.490;2023-04-15T05:45:33;16.60;;;12.93;;
56860;SDS011;42744;51.094;3.490;2023-04-15T05:47:59;17.03;;;13.63;;
56860;SDS011;42744;51.094;3.490;2023-04-15T05:50:25;18.77;;;13.93;;
56860;SDS011;42744;51.094;3.490;2023-04-15T05:52:51;20.63;;;13.67;;
56860;SDS011;42744;51.094;3.490;2023-04-15T05:55:17;17.37;;;13.73;;
56860;SDS011;42744;51.094;3.490;2023-04-15T05:57:43;18.13;;;13.83;;
56860;SDS011;42744;51.094;3.490;2023-04-15T06:00:09;18.60;;;13.07;;
56860;SDS011;42744;51.094;3.490;2023-04-15T06:02:36;20.73;;;13.83;;
56860;SDS011;42744;51.094;3.490;2023-04-15T06:05:02;20.13;;;14.20;;
56860;SDS011;42744;51.094;3.490;2023-04-15T06:07:28;19.90;;;14.10;;
56860;SDS011;42744;51.094;3.490;2023-04-15T06:09:54;22.87;;;15.77;;
56860;SDS011;42744;51.094;3.490;2023-04-15T06:12:20;18.73;;;14.40;;
56860;SDS011;42744;51.094;3.490;2023-04-15T06:14:46;25.00;;;16.47;;
56860;SDS011;42744;51.094;3.490;2023-04-15T06:17:15;21.80;;;15.67;;
56860;SDS011;42744;51.094;3.490;2023-04-15T06:19:43;20.47;;;16.47;;
56860;SDS011;42744;51.094;3.490;2023-04-15T06:22:09;20.60;;;15.13;;
56860;SDS011;42744;51.094;3.490;2023-04-15T06:24:35;19.23;;;15.10;;
56860;SDS011;42744;51.094;3.490;2023-04-15T06:27:01;22.00;;;14.97;;
56860;SDS011;42744;51.094;3.490;2023-04-15T06:29:27;29.83;;;19.47;;
56860;SDS011;42744;51.094;3.490;2023-04-15T06:31:53;23.37;;;17.47;;
56860;SDS011;42744;51.094;3.490;2023-04-15T06:34:20;23.70;;;16.43;;
56860;SDS011;42744;51.094;3.490;2023-04-15T06:36:46;21.13;;;15.97;;
56860;SDS011;42744;51.094;3.490;2023-04-15T06:39:12;20.43;;;15.73;;
56860;SDS011;42744;51.094;3.490;2023-04-15T06:41:38;20.90;;;15.60;;
56860;SDS011;42744;51.094;3.490;2023-04-15T06:44:04;20.17;;;14.10;;
56860;SDS011;42744;51.094;3.490;2023-04-15T06:46:31;18.47;;;14.83;;
56860;SDS011;42744;51.094;3.490;2023-04-15T06:48:57;19.33;;;14.90;;
56860;SDS011;42744;51.094;3.490;2023-04-15T06:51:22;21.03;;;15.20;;
56860;SDS011;42744;51.094;3.490;2023-04-15T06:53:49;16.97;;;13.73;;
56860;SDS011;42744;51.094;3.490;2023-04-15T06:56:15;18.10;;;14.10;;
56860;SDS011;42744;51.094;3.490;2023-04-15T06:58:41;18.33;;;13.90;;
56860;SDS011;42744;51.094;3.490;2023-04-15T07:01:07;17.37;;;14.27;;
56860;SDS011;42744;51.094;3.490;2023-04-15T07:03:33;18.70;;;15.10;;
56860;SDS011;42744;51.094;3.490;2023-04-15T07:05:59;19.33;;;14.83;;
56860;SDS011;42744;51.094;3.490;2023-04-15T07:08:26;19.47;;;13.17;;
56860;SDS011;42744;51.094;3.490;2023-04-15T07:10:52;18.17;;;13.47;;
56860;SDS011;42744;51.094;3.490;2023-04-15T07:13:18;18.10;;;12.53;;
56860;SDS011;42744;51.094;3.490;2023-04-15T07:15:44;16.23;;;12.30;;
56860;SDS011;42744;51.094;3.490;2023-04-15T07:18:10;16.77;;;11.33;;
56860;SDS011;42744;51.094;3.490;2023-04-15T07:20:36;15.90;;;12.37;;
56860;SDS011;42744;51.094;3.490;2023-04-15T07:23:03;15.50;;;11.40;;
56860;SDS011;42744;51.094;3.490;2023-04-15T07:25:29;15.57;;;12.47;;
56860;SDS011;42744;51.094;3.490;2023-04-15T07:27:55;15.93;;;11.70;;
56860;SDS011;42744;51.094;3.490;2023-04-15T07:30:21;16.27;;;11.23;;
56860;SDS011;42744;51.094;3.490;2023-04-15T07:32:47;14.83;;;12.00;;
56860;SDS011;42744;51.094;3.490;2023-04-15T07:35:13;15.70;;;11.47;;
56860;SDS011;42744;51.094;3.490;2023-04-15T07:37:40;13.00;;;10.97;;
56860;SDS011;42744;51.094;3.490;2023-04-15T07:40:07;14.23;;;10.70;;
56860;SDS011;42744;51.094;3.490;2023-04-15T07:42:34;12.50;;;10.47;;
56860;SDS011;42744;51.094;3.490;2023-04-15T07:45:01;16.53;;;8.57;;
56860;SDS011;42744;51.094;3.490;2023-04-15T07:47:27;8.10;;;6.47;;
56860;SDS011;42744;51.094;3.490;2023-04-15T07:49:53;14.77;;;9.00;;
56860;SDS011;42744;51.094;3.490;2023-04-15T07:52:19;16.13;;;9.07;;
56860;SDS011;42744;51.094;3.490;2023-04-15T07:54:45;15.13;;;10.07;;
56860;SDS011;42744;51.094;3.490;2023-04-15T07:57:11;13.17;;;9.37;;
56860;SDS011;42744;51.094;3.490;2023-04-15T07:59:37;14.17;;;9.90;;
56860;SDS011;42744;51.094;3.490;2023-04-15T08:02:03;13.23;;;10.63;;
56860;SDS011;42744;51.094;3.490;2023-04-15T08:04:29;15.40;;;10.87;;
56860;SDS011;42744;51.094;3.490;2023-04-15T08:06:55;14.77;;;10.83;;
56860;SDS011;42744;51.094;3.490;2023-04-15T08:09:22;13.27;;;11.83;;
56860;SDS011;42744;51.094;3.490;2023-04-15T08:11:48;14.50;;;12.03;;
56860;SDS011;42744;51.094;3.490;2023-04-15T08:14:15;15.20;;;12.63;;
56860;SDS011;42744;51.094;3.490;2023-04-15T08:16:41;13.27;;;11.23;;
56860;SDS011;42744;51.094;3.490;2023-04-15T08:19:07;15.80;;;11.97;;
56860;SDS011;42744;51.094;3.490;2023-04-15T08:21:33;13.67;;;12.07;;
56860;SDS011;42744;51.094;3.490;2023-04-15T08:23:59;15.30;;;11.83;;
56860;SDS011;42744;51.094;3.490;2023-04-15T08:26:26;19.77;;;12.43;;
56860;SDS011;42744;51.094;3.490;2023-04-15T08:28:52;15.27;;;11.17;;
56860;SDS011;42744;51.094;3.490;2023-04-15T08:31:18;15.87;;;10.93;;
56860;SDS011;42744;51.094;3.490;2023-04-15T08:33:45;15.93;;;11.07;;
56860;SDS011;42744;51.094;3.490;2023-04-15T08:36:11;13.60;;;11.10;;
56860;SDS011;42744;51.094;3.490;2023-04-15T08:38:38;13.93;;;11.17;;
56860;SDS011;42744;51.094;3.490;2023-04-15T08:41:23;14.87;;;11.40;;
56860;SDS011;42744;51.094;3.490;2023-04-15T08:43:58;13.10;;;10.67;;
56860;SDS011;42744;51.094;3.490;2023-04-15T08:46:28;17.37;;;11.47;;
56860;SDS011;42744;51.094;3.490;2023-04-15T08:48:56;12.43;;;11.00;;
56860;SDS011;42744;51.094;3.490;2023-04-15T08:51:23;12.43;;;11.00;;
56860;SDS011;42744;51.094;3.490;2023-04-15T08:53:49;15.63;;;11.03;;
56860;SDS011;42744;51.094;3.490;2023-04-15T08:56:17;13.60;;;10.57;;
56860;SDS011;42744;51.094;3.490;2023-04-15T08:58:47;15.47;;;12.03;;
56860;SDS011;42744;51.094;3.490;2023-04-15T09:01:13;15.77;;;10.90;;
56860;SDS011;42744;51.094;3.490;2023-04-15T09:03:40;12.23;;;10.87;;
56860;SDS011;42744;51.094;3.490;2023-04-15T09:06:07;13.13;;;10.17;;
56860;SDS011;42744;51.094;3.490;2023-04-15T09:08:33;13.03;;;10.87;;
56860;SDS011;42744;51.094;3.490;2023-04-15T09:11:03;17.00;;;10.23;;
56860;SDS011;42744;51.094;3.490;2023-04-15T09:13:29;13.37;;;10.27;;
56860;SDS011;42744;51.094;3.490;2023-04-15T09:15:55;15.97;;;11.07;;
56860;SDS011;42744;51.094;3.490;2023-04-15T09:18:26;17.47;;;11.60;;
56860;SDS011;42744;51.094;3.490;2023-04-15T09:20:54;15.10;;;11.07;;
56860;SDS011;42744;51.094;3.490;2023-04-15T09:23:20;11.90;;;10.27;;
56860;SDS011;42744;51.094;3.490;2023-04-15T09:25:46;14.00;;;10.77;;
56860;SDS011;42744;51.094;3.490;2023-04-15T09:28:13;16.70;;;10.17;;
56860;SDS011;42744;51.094;3.490;2023-04-15T09:30:41;11.33;;;9.47;;
56860;SDS011;42744;51.094;3.490;2023-04-15T09:33:10;12.27;;;10.07;;
56860;SDS011;42744;51.094;3.490;2023-04-15T09:35:39;11.33;;;10.13;;
56860;SDS011;42744;51.094;3.490;2023-04-15T09:38:06;13.47;;;10.73;;
56860;SDS011;42744;51.094;3.490;2023-04-15T09:40:34;13.63;;;9.20;;
56860;SDS011;42744;51.094;3.490;2023-04-15T09:43:05;13.90;;;9.77;;
56860;SDS011;42744;51.094;3.490;2023-04-15T09:45:32;13.50;;;9.97;;
56860;SDS011;42744;51.094;3.490;2023-04-15T09:48:00;9.87;;;8.80;;
56860;SDS011;42744;51.094;3.490;2023-04-15T09:50:42;11.50;;;9.40;;
56860;SDS011;42744;51.094;3.490;2023-04-15T09:53:14;10.67;;;8.93;;
56860;SDS011;42744;51.094;3.490;2023-04-15T09:55:43;11.30;;;9.03;;
56860;SDS011;42744;51.094;3.490;2023-04-15T09:58:17;12.03;;;9.17;;
56860;SDS011;42744;51.094;3.490;2023-04-15T10:00:52;11.40;;;9.50;;
56860;SDS011;42744;51.094;3.490;2023-04-15T10:03:20;10.00;;;8.23;;
56860;SDS011;42744;51.094;3.490;2023-04-15T10:05:48;11.13;;;7.40;;
56860;SDS011;42744;51.094;3.490;2023-04-15T10:08:17;8.53;;;7.40;;
56860;SDS011;42744;51.094;3.490;2023-04-15T10:10:46;9.43;;;7.47;;
56860;SDS011;42744;51.094;3.490;2023-04-15T10:13:13;8.50;;;7.40;;
56860;SDS011;42744;51.094;3.490;2023-04-15T10:15:43;8.13;;;7.20;;
56860;SDS011;42744;51.094;3.490;2023-04-15T10:18:14;10.50;;;6.60;;
56860;SDS011;42744;51.094;3.490;2023-04-15T10:20:43;7.80;;;6.30;;
56860;SDS011;42744;51.094;3.490;2023-04-15T10:23:10;7.27;;;6.33;;
56860;SDS011;42744;51.094;3.490;2023-04-15T10:25:37;7.53;;;6.07;;
56860;SDS011;42744;51.094;3.490;2023-04-15T10:28:04;9.23;;;6.00;;
56860;SDS011;42744;51.094;3.490;2023-04-15T10:30:32;8.50;;;5.90;;
56860;SDS011;42744;51.094;3.490;2023-04-15T10:32:59;8.47;;;6.63;;
56860;SDS011;42744;51.094;3.490;2023-04-15T10:35:27;7.23;;;6.53;;
56860;SDS011;42744;51.094;3.490;2023-04-15T10:37:55;7.60;;;6.80;;
56860;SDS011;42744;51.094;3.490;2023-04-15T10:42:52;8.60;;;6.60;;
56860;SDS011;42744;51.094;3.490;2023-04-15T10:45:26;8.93;;;5.90;;
56860;SDS011;42744;51.094;3.490;2023-04-15T10:48:00;8.20;;;6.53;;
56860;SDS011;42744;51.094;3.490;2023-04-15T10:50:30;11.73;;;6.60;;
56860;SDS011;42744;51.094;3.490;2023-04-15T10:52:57;10.13;;;4.67;;
56860;SDS011;42744;51.094;3.490;2023-04-15T10:55:24;5.23;;;4.10;;
56860;SDS011;42744;51.094;3.490;2023-04-15T10:57:52;8.40;;;4.30;;
56860;SDS011;42744;51.094;3.490;2023-04-15T11:00:20;6.00;;;3.90;;
56860;SDS011;42744;51.094;3.490;2023-04-15T11:02:54;4.87;;;3.40;;
56860;SDS011;42744;51.094;3.490;2023-04-15T11:05:22;7.07;;;4.47;;
56860;SDS011;42744;51.094;3.490;2023-04-15T11:08:09;7.03;;;4.90;;
56860;SDS011;42744;51.094;3.490;2023-04-15T11:13:13;7.90;;;4.63;;
56860;SDS011;42744;51.094;3.490;2023-04-15T11:15:45;5.43;;;4.10;;
56860;SDS011;42744;51.094;3.490;2023-04-15T11:20:45;5.93;;;3.67;;
56860;SDS011;42744;51.094;3.490;2023-04-15T11:23:13;3.73;;;2.67;;
56860;SDS011;42744;51.094;3.490;2023-04-15T11:25:41;7.10;;;3.37;;
56860;SDS011;42744;51.094;3.490;2023-04-15T11:28:08;4.10;;;3.20;;
56860;SDS011;42744;51.094;3.490;2023-04-15T11:30:56;6.03;;;3.40;;
56860;SDS011;42744;51.094;3.490;2023-04-15T11:33:23;5.43;;;2.80;;
56860;SDS011;42744;51.094;3.490;2023-04-15T11:35:53;5.00;;;3.57;;
56860;SDS011;42744;51.094;3.490;2023-04-15T11:38:19;6.47;;;3.80;;
56860;SDS011;42744;51.094;3.490;2023-04-15T11:40:46;4.03;;;2.63;;
56860;SDS011;42744;51.094;3.490;2023-04-15T11:43:15;2.60;;;2.00;;
56860;SDS011;42744;51.094;3.490;2023-04-15T11:48:20;5.73;;;3.60;;
56860;SDS011;42744;51.094;3.490;2023-04-15T11:50:58;4.37;;;3.50;;
56860;SDS011;42744;51.094;3.490;2023-04-15T11:53:45;3.70;;;3.10;;
56860;SDS011;42744;51.094;3.490;2023-04-15T11:56:18;4.80;;;3.70;;
56860;SDS011;42744;51.094;3.490;2023-04-15T11:58:46;7.43;;;4.83;;
56860;SDS011;42744;51.094;3.490;2023-04-15T12:01:14;5.23;;;4.17;;
56860;SDS011;42744;51.094;3.490;2023-04-15T12:03:42;5.60;;;3.83;;
56860;SDS011;42744;51.094;3.490;2023-04-15T12:06:19;6.17;;;3.90;;
56860;SDS011;42744;51.094;3.490;2023-04-15T12:11:37;4.03;;;3.63;;
56860;SDS011;42744;51.094;3.490;2023-04-15T12:14:09;4.43;;;4.00;;
56860;SDS011;42744;51.094;3.490;2023-04-15T12:16:39;4.67;;;3.67;;
56860;SDS011;42744;51.094;3.490;2023-04-15T12:19:16;4.70;;;3.83;;
56860;SDS011;42744;51.094;3.490;2023-04-15T12:21:44;4.03;;;3.60;;
56860;SDS011;42744;51.094;3.490;2023-04-15T12:24:12;5.57;;;3.93;;
56860;SDS011;42744;51.094;3.490;2023-04-15T12:29:27;5.80;;;4.00;;
56860;SDS011;42744;51.094;3.490;2023-04-15T12:31:58;5.13;;;3.43;;
56860;SDS011;42744;51.094;3.490;2023-04-15T12:34:29;4.73;;;3.90;;
56860;SDS011;42744;51.094;3.490;2023-04-15T12:36:57;4.37;;;3.33;;
56860;SDS011;42744;51.094;3.490;2023-04-15T12:39:25;4.40;;;3.67;;
56860;SDS011;42744;51.094;3.490;2023-04-15T12:41:52;8.30;;;4.90;;
56860;SDS011;42744;51.094;3.490;2023-04-15T12:44:20;4.50;;;3.60;;
56860;SDS011;42744;51.094;3.490;2023-04-15T12:46:48;4.77;;;4.10;;
56860;SDS011;42744;51.094;3.490;2023-04-15T12:49:15;5.30;;;4.47;;
56860;SDS011;42744;51.094;3.490;2023-04-15T12:51:48;5.27;;;4.40;;
56860;SDS011;42744;51.094;3.490;2023-04-15T12:54:19;5.60;;;4.30;;
56860;SDS011;42744;51.094;3.490;2023-04-15T12:56:47;6.37;;;4.70;;
56860;SDS011;42744;51.094;3.490;2023-04-15T12:59:14;5.87;;;5.03;;
56860;SDS011;42744;51.094;3.490;2023-04-15T13:01:47;6.87;;;5.43;;
56860;SDS011;42744;51.094;3.490;2023-04-15T13:04:14;7.30;;;4.13;;
56860;SDS011;42744;51.094;3.490;2023-04-15T13:06:43;5.53;;;3.83;;
56860;SDS011;42744;51.094;3.490;2023-04-15T13:09:10;6.90;;;3.93;;
56860;SDS011;42744;51.094;3.490;2023-04-15T13:11:36;6.10;;;3.50;;
56860;SDS011;42744;51.094;3.490;2023-04-15T13:14:03;8.83;;;4.20;;
56860;SDS011;42744;51.094;3.490;2023-04-15T13:16:31;5.20;;;4.03;;
56860;SDS011;42744;51.094;3.490;2023-04-15T13:18:58;8.80;;;6.30;;
56860;SDS011;42744;51.094;3.490;2023-04-15T13:21:25;8.03;;;7.00;;
56860;SDS011;42744;51.094;3.490;2023-04-15T13:23:51;8.87;;;7.37;;
56860;SDS011;42744;51.094;3.490;2023-04-15T13:26:17;14.10;;;9.03;;
56860;SDS011;42744;51.094;3.490;2023-04-15T13:28:43;8.50;;;7.60;;
56860;SDS011;42744;51.094;3.490;2023-04-15T13:31:10;11.07;;;8.00;;
56860;SDS011;42744;51.094;3.490;2023-04-15T13:33:36;10.03;;;7.47;;
56860;SDS011;42744;51.094;3.490;2023-04-15T13:36:02;9.35;;;7.22;;
56860;SDS011;42744;51.094;3.490;2023-04-15T13:38:28;9.40;;;6.87;;
56860;SDS011;42744;51.094;3.490;2023-04-15T13:40:55;7.95;;;6.47;;
56860;SDS011;42744;51.094;3.490;2023-04-15T13:43:21;9.10;;;6.60;;
56860;SDS011;42744;51.094;3.490;2023-04-15T13:45:47;8.18;;;6.57;;
56860;SDS011;42744;51.094;3.490;2023-04-15T13:48:14;8.98;;;6.15;;
56860;SDS011;42744;51.094;3.490;2023-04-15T13:50:40;7.43;;;6.60;;
56860;SDS011;42744;51.094;3.490;2023-04-15T13:53:10;9.10;;;6.55;;
56860;SDS011;42744;51.094;3.490;2023-04-15T13:55:36;10.30;;;7.53;;
56860;SDS011;42744;51.094;3.490;2023-04-15T13:58:06;10.98;;;6.97;;
56860;SDS011;42744;51.094;3.490;2023-04-15T14:00:35;8.83;;;6.60;;
56860;SDS011;42744;51.094;3.490;2023-04-15T14:03:01;12.73;;;7.00;;
56860;SDS011;42744;51.094;3.490;2023-04-15T14:05:27;9.98;;;6.87;;
56860;SDS011;42744;51.094;3.490;2023-04-15T14:07:53;9.30;;;6.80;;
56860;SDS011;42744;51.094;3.490;2023-04-15T14:10:20;7.70;;;6.20;;
56860;SDS011;42744;51.094;3.490;2023-04-15T14:12:46;10.00;;;6.70;;
56860;SDS011;42744;51.094;3.490;2023-04-15T14:15:11;8.30;;;6.57;;
56860;SDS011;42744;51.094;3.490;2023-04-15T14:17:38;7.50;;;5.97;;
56860;SDS011;42744;51.094;3.490;2023-04-15T14:20:07;6.63;;;5.80;;
56860;SDS011;42744;51.094;3.490;2023-04-15T14:22:34;7.63;;;6.10;;
56860;SDS011;42744;51.094;3.490;2023-04-15T14:25:00;8.30;;;5.57;;
56860;SDS011;42744;51.094;3.490;2023-04-15T14:27:27;7.57;;;4.50;;
56860;SDS011;42744;51.094;3.490;2023-04-15T14:29:53;6.10;;;4.77;;
56860;SDS011;42744;51.094;3.490;2023-04-15T14:32:19;8.20;;;4.73;;
56860;SDS011;42744;51.094;3.490;2023-04-15T14:34:45;7.27;;;4.30;;
56860;SDS011;42744;51.094;3.490;2023-04-15T14:37:11;5.07;;;3.37;;
56860;SDS011;42744;51.094;3.490;2023-04-15T14:39:37;6.63;;;3.63;;
56860;SDS011;42744;51.094;3.490;2023-04-15T14:42:04;6.20;;;3.67;;
56860;SDS011;42744;51.094;3.490;2023-04-15T14:44:30;5.10;;;3.30;;
56860;SDS011;42744;51.094;3.490;2023-04-15T14:46:56;4.87;;;2.97;;
56860;SDS011;42744;51.094;3.490;2023-04-15T14:49:22;7.10;;;3.47;;
56860;SDS011;42744;51.094;3.490;2023-04-15T14:51:48;5.77;;;2.83;;
56860;SDS011;42744;51.094;3.490;2023-04-15T14:54:14;4.37;;;2.60;;